createdAt,value
2022-10-25T00:01:55.405Z,2.30
2022-10-25T00:06:53.702Z,2.67
2022-10-25T00:09:20.420Z,2.80
2022-10-25T00:11:47.140Z,2.80
2022-10-25T00:14:18.678Z,3.63
2022-10-25T00:16:45.356Z,2.80
2022-10-25T00:19:12.009Z,3.30
2022-10-25T00:21:38.687Z,3.17
2022-10-25T00:24:05.864Z,3.58
2022-10-25T00:26:32.824Z,3.83
2022-10-25T00:28:59.545Z,4.03
2022-10-25T00:31:26.301Z,4.20
2022-10-25T00:33:52.951Z,3.58
2022-10-25T00:36:22.220Z,4.82
2022-10-25T00:38:49.096Z,3.97
2022-10-25T00:41:21.459Z,3.95
2022-10-25T00:43:51.047Z,3.80
2022-10-25T00:46:20.866Z,4.07
2022-10-25T00:49:02.611Z,3.90
2022-10-25T00:51:36.919Z,3.95
2022-10-25T00:54:04.133Z,4.30
2022-10-25T00:56:36.807Z,4.25
2022-10-25T00:59:07.824Z,3.90
2022-10-25T01:01:34.923Z,4.15
2022-10-25T01:04:05.637Z,4.45
2022-10-25T01:06:37.596Z,4.32
2022-10-25T01:09:06.232Z,4.50
2022-10-25T01:11:32.974Z,5.18
2022-10-25T01:13:59.662Z,4.70
2022-10-25T01:16:53.451Z,4.10
2022-10-25T01:19:59.098Z,4.20
2022-10-25T01:22:45.834Z,4.25
2022-10-25T01:25:32.430Z,4.45
2022-10-25T01:28:18.569Z,4.03
2022-10-25T01:31:15.430Z,4.07
2022-10-25T01:34:00.901Z,3.70
2022-10-25T01:36:52.148Z,3.78
2022-10-25T01:39:31.191Z,3.80
2022-10-25T01:42:28.377Z,3.55
2022-10-25T01:45:19.948Z,3.25
2022-10-25T01:48:24.183Z,3.38
2022-10-25T01:50:51.037Z,3.20
2022-10-25T01:53:17.786Z,3.33
2022-10-25T01:55:52.954Z,3.38
2022-10-25T01:58:53.779Z,3.17
2022-10-25T02:01:23.542Z,3.10
2022-10-25T02:04:01.867Z,3.08
2022-10-25T02:07:10.540Z,3.28
2022-10-25T02:09:46.278Z,2.80
2022-10-25T02:12:21.410Z,3.22
2022-10-25T02:15:29.660Z,2.50
2022-10-25T02:18:00.588Z,3.60
2022-10-25T02:20:31.721Z,3.42
2022-10-25T02:22:59.510Z,3.10
2022-10-25T02:25:28.328Z,3.67
2022-10-25T02:27:57.576Z,2.70
2022-10-25T02:30:24.468Z,3.25
2022-10-25T02:32:51.890Z,3.17
2022-10-25T02:35:19.394Z,3.20
2022-10-25T02:37:56.286Z,3.17
2022-10-25T02:40:27.498Z,3.88
2022-10-25T02:42:54.140Z,3.13
2022-10-25T02:45:20.853Z,2.90
2022-10-25T02:47:47.778Z,3.42
2022-10-25T02:50:14.775Z,3.55
2022-10-25T02:52:41.459Z,3.85
2022-10-25T02:55:08.487Z,2.50
2022-10-25T02:57:37.268Z,5.75
2022-10-25T03:00:06.349Z,3.53
2022-10-25T03:02:33.104Z,3.40
2022-10-25T03:04:59.818Z,3.03
2022-10-25T03:07:26.477Z,2.63
2022-10-25T03:09:53.145Z,3.58
2022-10-25T03:12:19.799Z,3.97
2022-10-25T03:14:46.461Z,3.17
2022-10-25T03:17:13.135Z,3.75
2022-10-25T03:19:39.876Z,3.38
2022-10-25T03:22:06.513Z,3.20
2022-10-25T03:24:33.261Z,3.08
2022-10-25T03:27:00.501Z,2.85
2022-10-25T03:29:27.206Z,2.97
2022-10-25T03:31:53.899Z,2.80
2022-10-25T03:34:20.657Z,2.80
2022-10-25T03:36:47.538Z,3.10
2022-10-25T03:39:14.320Z,2.72
2022-10-25T03:41:42.447Z,2.95
2022-10-25T03:44:09.156Z,2.63
2022-10-25T03:46:35.807Z,3.15
2022-10-25T03:49:02.448Z,2.55
2022-10-25T03:51:29.158Z,2.80
2022-10-25T03:53:55.823Z,3.50
2022-10-25T03:56:22.466Z,3.15
2022-10-25T03:58:49.193Z,3.63
2022-10-25T04:01:15.988Z,3.30
2022-10-25T04:03:45.105Z,3.65
2022-10-25T04:06:11.812Z,3.42
2022-10-25T04:08:38.726Z,3.53
2022-10-25T04:11:05.587Z,3.88
2022-10-25T04:13:32.288Z,3.85
2022-10-25T04:15:58.954Z,4.28
2022-10-25T04:18:25.584Z,3.92
2022-10-25T04:21:02.646Z,3.92
2022-10-25T04:23:29.386Z,4.38
2022-10-25T04:25:56.942Z,4.90
2022-10-25T04:28:24.338Z,4.03
2022-10-25T04:30:51.283Z,4.22
2022-10-25T04:33:18.155Z,4.05
2022-10-25T04:35:45.065Z,3.63
2022-10-25T04:38:11.683Z,3.78
2022-10-25T04:40:38.406Z,3.67
2022-10-25T04:43:05.055Z,3.03
2022-10-25T04:45:31.823Z,3.72
2022-10-25T04:47:58.459Z,3.28
2022-10-25T04:50:25.092Z,3.40
2022-10-25T04:52:52.851Z,3.33
2022-10-25T04:55:19.576Z,3.20
2022-10-25T04:57:46.216Z,3.53
2022-10-25T05:00:13.320Z,2.85
2022-10-25T05:02:40.094Z,4.05
2022-10-25T05:05:07.069Z,3.72
2022-10-25T05:07:33.714Z,4.07
2022-10-25T05:10:00.438Z,4.20
2022-10-25T05:12:27.253Z,3.55
2022-10-25T05:14:53.967Z,3.85
2022-10-25T05:17:20.609Z,4.00
2022-10-25T05:19:47.259Z,3.95
2022-10-25T05:22:13.883Z,4.00
2022-10-25T05:24:40.533Z,3.75
2022-10-25T05:27:07.243Z,4.45
2022-10-25T05:29:33.947Z,4.10
2022-10-25T05:32:00.606Z,4.90
2022-10-25T05:34:27.500Z,4.95
2022-10-25T05:36:55.498Z,4.40
2022-10-25T05:39:22.233Z,5.25
2022-10-25T05:41:49.768Z,5.45
2022-10-25T05:44:16.781Z,5.38
2022-10-25T05:46:44.555Z,4.80
2022-10-25T05:49:12.188Z,4.53
2022-10-25T05:51:39.221Z,4.65
2022-10-25T05:54:09.386Z,4.50
2022-10-25T05:56:36.927Z,4.30
2022-10-25T05:59:12.052Z,4.47
2022-10-25T06:01:41.147Z,4.90
2022-10-25T06:04:08.668Z,4.72
2022-10-25T06:06:36.858Z,5.45
2022-10-25T06:09:05.097Z,4.88
2022-10-25T06:11:34.342Z,4.60
2022-10-25T06:14:01.093Z,4.95
2022-10-25T06:16:29.910Z,4.88
2022-10-25T06:19:02.486Z,4.57
2022-10-25T06:21:29.804Z,4.80
2022-10-25T06:23:58.075Z,5.28
2022-10-25T06:26:27.879Z,4.60
2022-10-25T06:28:56.789Z,4.72
2022-10-25T06:31:23.890Z,5.05
2022-10-25T06:33:51.095Z,4.30
2022-10-25T06:36:22.986Z,5.22
2022-10-25T06:38:50.349Z,4.38
2022-10-25T06:41:25.659Z,4.00
2022-10-25T06:43:52.306Z,4.30
2022-10-25T06:46:23.716Z,4.40
2022-10-25T06:48:52.915Z,4.88
2022-10-25T06:51:20.013Z,4.10
2022-10-25T06:53:47.836Z,4.57
2022-10-25T06:56:20.394Z,4.78
2022-10-25T06:58:47.151Z,3.80
2022-10-25T07:01:15.851Z,3.65
2022-10-25T07:03:43.242Z,4.90
2022-10-25T07:06:26.293Z,3.97
2022-10-25T07:08:55.204Z,3.95
2022-10-25T07:11:23.205Z,4.10
2022-10-25T07:13:50.087Z,4.07
2022-10-25T07:16:20.653Z,4.28
2022-10-25T07:18:47.692Z,4.05
2022-10-25T07:21:22.644Z,4.55
2022-10-25T07:23:50.750Z,4.20
2022-10-25T07:26:23.797Z,5.18
2022-10-25T07:28:52.617Z,4.45
2022-10-25T07:31:31.453Z,4.25
2022-10-25T07:34:00.092Z,4.15
2022-10-25T07:36:27.496Z,4.40
2022-10-25T07:38:54.826Z,4.30
2022-10-25T07:41:25.598Z,4.53
2022-10-25T07:43:55.411Z,4.18
2022-10-25T07:46:23.573Z,4.55
2022-10-25T07:48:52.384Z,5.35
2022-10-25T07:51:20.016Z,4.60
2022-10-25T07:53:47.122Z,4.57
2022-10-25T07:56:18.855Z,4.68
2022-10-25T07:58:50.434Z,4.80
2022-10-25T08:01:22.121Z,4.70
2022-10-25T08:03:49.846Z,5.55
2022-10-25T08:06:16.519Z,5.28
2022-10-25T08:08:43.535Z,4.75
2022-10-25T08:11:10.516Z,5.45
2022-10-25T08:13:38.640Z,5.38
2022-10-25T08:16:06.697Z,5.10
2022-10-25T08:18:34.325Z,4.47
2022-10-25T08:21:03.532Z,6.10
2022-10-25T08:23:32.201Z,5.82
2022-10-25T08:25:59.796Z,4.45
2022-10-25T08:28:26.524Z,5.35
2022-10-25T08:30:55.384Z,4.97
2022-10-25T08:33:22.624Z,5.53
2022-10-25T08:35:49.348Z,5.07
2022-10-25T08:38:16.063Z,5.15
2022-10-25T08:40:58.960Z,4.68
2022-10-25T08:43:37.895Z,5.18
2022-10-25T08:46:10.854Z,5.38
2022-10-25T08:48:40.852Z,5.28
2022-10-25T08:51:21.408Z,5.15
2022-10-25T08:56:27.095Z,4.47
2022-10-25T08:59:00.339Z,4.82
2022-10-25T09:01:37.119Z,5.22
2022-10-25T09:04:03.990Z,4.80
2022-10-25T09:07:24.832Z,5.10
2022-10-25T09:10:07.814Z,4.90
2022-10-25T09:12:55.834Z,4.55
2022-10-25T09:16:03.944Z,5.22
2022-10-25T09:18:43.132Z,4.32
2022-10-25T09:21:26.218Z,4.70
2022-10-25T09:24:05.249Z,4.28
2022-10-25T09:26:42.714Z,4.30
2022-10-25T09:29:16.306Z,4.78
2022-10-25T09:31:50.704Z,4.68
2022-10-25T09:34:20.340Z,5.00
2022-10-25T09:36:49.806Z,5.10
2022-10-25T09:39:23.570Z,4.30
2022-10-25T09:41:53.405Z,4.20
2022-10-25T09:44:53.900Z,5.07
2022-10-25T09:50:10.751Z,4.78
2022-10-25T09:52:43.787Z,4.63
2022-10-25T09:55:27.730Z,4.45
2022-10-25T09:57:55.026Z,4.47
2022-10-25T10:00:21.700Z,3.97
2022-10-25T10:02:48.446Z,4.63
2022-10-25T10:05:20.385Z,4.05
2022-10-25T10:07:50.340Z,4.10
2022-10-25T10:10:24.958Z,4.30
2022-10-25T10:13:02.273Z,4.20
2022-10-25T10:15:32.669Z,4.30
2022-10-25T10:21:11.272Z,4.13
2022-10-25T10:23:44.144Z,3.60
2022-10-25T10:26:36.628Z,4.32
2022-10-25T10:29:15.418Z,3.92
2022-10-25T10:31:48.124Z,4.32
2022-10-25T10:36:50.047Z,4.20
2022-10-25T10:39:22.205Z,4.70
2022-10-25T10:42:15.328Z,3.88
2022-10-25T10:44:59.191Z,4.22
2022-10-25T10:47:27.276Z,4.15
2022-10-25T10:49:56.761Z,3.92
2022-10-25T10:52:36.373Z,4.83
2022-10-25T10:55:08.152Z,4.18
2022-10-25T10:57:35.998Z,4.65
2022-10-25T11:00:03.558Z,4.38
2022-10-25T11:02:42.915Z,5.00
2022-10-25T11:05:25.724Z,4.77
2022-10-25T11:07:58.842Z,4.75
2022-10-25T11:10:33.866Z,4.97
2022-10-25T11:13:08.419Z,5.13
2022-10-25T11:16:01.128Z,5.55
2022-10-25T11:19:04.628Z,4.85
2022-10-25T11:21:52.548Z,4.30
2022-10-25T11:24:38.033Z,4.55
2022-10-25T11:27:13.629Z,5.13
2022-10-25T11:30:09.001Z,4.70
2022-10-25T11:33:17.419Z,4.93
2022-10-25T11:36:09.130Z,4.60
2022-10-25T11:39:11.893Z,4.45
2022-10-25T11:41:53.433Z,4.05
2022-10-25T11:44:40.664Z,4.20
2022-10-25T11:47:29.969Z,3.73
2022-10-25T11:50:02.510Z,4.20
2022-10-25T11:52:56.039Z,3.67
2022-10-25T11:55:38.497Z,3.80
2022-10-25T11:58:23.276Z,4.07
2022-10-25T12:01:06.251Z,3.30
2022-10-25T12:04:00.017Z,3.47
2022-10-25T12:06:45.103Z,3.63
2022-10-25T12:09:33.986Z,2.83
2022-10-25T12:12:17.215Z,3.05
2022-10-25T12:14:52.000Z,3.00
2022-10-25T12:17:34.686Z,3.50
2022-10-25T12:20:07.347Z,3.45
2022-10-25T12:22:42.117Z,3.25
2022-10-25T12:25:15.711Z,3.33
2022-10-25T12:27:45.956Z,3.72
2022-10-25T12:30:18.600Z,4.30
2022-10-25T12:32:54.671Z,4.13
2022-10-25T12:35:32.175Z,3.35
2022-10-25T12:38:31.579Z,3.90
2022-10-25T12:41:03.562Z,4.65
2022-10-25T12:43:41.580Z,4.00
2022-10-25T12:46:21.114Z,3.65
2022-10-25T12:49:06.721Z,4.47
2022-10-25T12:52:11.912Z,3.60
2022-10-25T12:54:47.346Z,4.05
2022-10-25T12:57:14.302Z,3.83
2022-10-25T13:00:11.098Z,3.45
2022-10-25T13:03:06.709Z,3.90
2022-10-25T13:06:14.592Z,3.10
2022-10-25T13:08:42.660Z,4.00
2022-10-25T13:11:09.798Z,3.42
2022-10-25T13:13:47.284Z,2.92
2022-10-25T13:16:27.750Z,3.60
2022-10-25T13:22:27.276Z,3.78
2022-10-25T13:24:54.703Z,3.40
2022-10-25T13:27:24.189Z,3.38
2022-10-25T13:33:21.575Z,3.80
2022-10-25T13:35:51.437Z,3.60
2022-10-25T13:38:23.398Z,3.78
2022-10-25T13:41:18.096Z,3.92
2022-10-25T13:44:00.831Z,3.90
2022-10-25T13:46:38.910Z,4.07
2022-10-25T13:49:32.709Z,4.57
2022-10-25T13:52:05.368Z,4.20
2022-10-25T13:54:47.681Z,4.68
2022-10-25T13:57:53.989Z,4.47
2022-10-25T14:00:42.255Z,4.13
2022-10-25T14:03:08.926Z,3.97
2022-10-25T14:05:54.103Z,4.00
2022-10-25T14:08:39.610Z,4.60
2022-10-25T14:11:19.618Z,3.80
2022-10-25T14:13:54.957Z,4.38
2022-10-25T14:16:31.012Z,3.45
2022-10-25T14:19:13.173Z,3.25
2022-10-25T14:21:44.604Z,3.83
2022-10-25T14:24:15.396Z,3.05
2022-10-25T14:27:25.560Z,3.08
2022-10-25T14:29:52.363Z,3.13
2022-10-25T14:32:21.878Z,3.33
2022-10-25T14:34:51.187Z,3.10
2022-10-25T14:37:17.954Z,3.35
2022-10-25T14:39:54.476Z,3.72
2022-10-25T14:42:21.118Z,3.28
2022-10-25T14:44:50.715Z,2.83
2022-10-25T14:47:32.120Z,3.35
2022-10-25T14:49:59.770Z,3.53
2022-10-25T14:52:31.068Z,3.70
2022-10-25T14:55:07.096Z,3.70
2022-10-25T14:57:34.668Z,4.30
2022-10-25T15:00:04.129Z,3.90
2022-10-25T15:02:35.552Z,4.70
2022-10-25T15:05:02.949Z,4.70
2022-10-25T15:07:43.741Z,4.20
2022-10-25T15:10:32.473Z,4.50
2022-10-25T15:13:23.830Z,4.80
2022-10-25T15:15:52.109Z,5.28
2022-10-25T15:18:26.599Z,4.57
2022-10-25T15:21:17.575Z,4.10
2022-10-25T15:24:05.193Z,4.13
2022-10-25T15:26:35.714Z,3.80
2022-10-25T15:29:05.120Z,4.75
2022-10-25T15:31:32.708Z,4.10
2022-10-25T15:34:05.603Z,3.85
2022-10-25T15:36:34.268Z,3.80
2022-10-25T15:39:22.093Z,4.03
2022-10-25T15:41:52.079Z,4.22
2022-10-25T15:44:21.048Z,4.70
2022-10-25T15:46:49.007Z,4.53
2022-10-25T15:49:16.582Z,4.00
2022-10-25T15:51:46.399Z,4.55
2022-10-25T15:54:18.991Z,4.05
2022-10-25T15:56:45.914Z,4.72
2022-10-25T15:59:14.061Z,4.40
2022-10-25T16:01:43.464Z,4.28
2022-10-25T16:04:15.880Z,4.27
2022-10-25T16:06:44.573Z,4.18
2022-10-25T16:09:11.795Z,4.10
2022-10-25T16:11:43.699Z,4.65
2022-10-25T16:14:21.399Z,5.53
2022-10-25T16:16:48.469Z,5.85
2022-10-25T16:19:19.606Z,5.22
2022-10-25T16:21:46.410Z,6.50
2022-10-25T16:24:13.749Z,10.18
2022-10-25T16:26:43.391Z,9.05
2022-10-25T16:29:19.595Z,6.30
2022-10-25T16:31:46.262Z,5.85
2022-10-25T16:34:15.480Z,6.13
2022-10-25T16:36:42.674Z,7.10
2022-10-25T16:39:11.415Z,7.15
2022-10-25T16:41:43.979Z,6.70
2022-10-25T16:44:16.275Z,6.60
2022-10-25T16:46:43.427Z,5.53
2022-10-25T16:49:10.411Z,6.40
2022-10-25T16:51:38.571Z,6.97
2022-10-25T16:54:05.597Z,7.15
2022-10-25T16:56:32.426Z,6.88
2022-10-25T16:59:00.683Z,5.93
2022-10-25T17:01:32.329Z,5.47
2022-10-25T17:04:00.072Z,5.82
2022-10-25T17:06:42.988Z,5.30
2022-10-25T17:09:10.578Z,4.50
2022-10-25T17:11:37.719Z,4.60
2022-10-25T17:14:04.747Z,5.25
2022-10-25T17:16:32.176Z,4.93
2022-10-25T17:18:59.079Z,4.43
2022-10-25T17:21:27.864Z,4.43
2022-10-25T17:23:55.277Z,4.97
2022-10-25T17:26:22.017Z,4.88
2022-10-25T17:28:48.745Z,4.25
2022-10-25T17:31:15.391Z,3.75
2022-10-25T17:33:42.879Z,3.83
2022-10-25T17:36:15.596Z,4.10
2022-10-25T17:38:42.895Z,4.05
2022-10-25T17:41:10.764Z,3.67
2022-10-25T17:43:39.339Z,3.50
2022-10-25T17:46:14.166Z,3.78
2022-10-25T17:48:40.823Z,3.70
2022-10-25T17:51:09.991Z,3.63
2022-10-25T17:53:37.336Z,3.40
2022-10-25T17:56:17.553Z,3.47
2022-10-25T17:58:46.581Z,3.38
2022-10-25T18:01:15.705Z,3.80
2022-10-25T18:03:42.546Z,3.72
2022-10-25T18:06:13.841Z,3.60
2022-10-25T18:08:41.646Z,4.35
2022-10-25T18:11:14.086Z,5.40
2022-10-25T18:13:41.799Z,7.13
2022-10-25T18:16:11.075Z,7.75
2022-10-25T18:18:38.866Z,6.05
2022-10-25T18:21:14.089Z,6.90
2022-10-25T18:23:41.870Z,5.00
2022-10-25T18:26:10.928Z,4.90
2022-10-25T18:28:38.295Z,6.05
2022-10-25T18:31:08.531Z,5.47
2022-10-25T18:33:37.066Z,4.28
2022-10-25T18:36:10.500Z,7.45
2022-10-25T18:38:37.416Z,4.93
2022-10-25T18:41:09.647Z,4.85
2022-10-25T18:43:36.621Z,4.10
2022-10-25T18:46:03.587Z,3.58
2022-10-25T18:48:30.350Z,3.88
2022-10-25T18:51:02.039Z,3.10
2022-10-25T18:53:28.723Z,3.88
2022-10-25T18:55:55.446Z,3.47
2022-10-25T18:58:22.127Z,2.90
2022-10-25T19:00:48.903Z,3.08
2022-10-25T19:03:16.441Z,3.28
2022-10-25T19:05:43.602Z,2.78
2022-10-25T19:08:11.623Z,2.50
2022-10-25T19:10:39.729Z,2.55
2022-10-25T19:13:07.631Z,2.60
2022-10-25T19:15:34.816Z,2.95
2022-10-25T19:18:03.582Z,2.70
2022-10-25T19:20:30.308Z,2.45
2022-10-25T19:22:58.771Z,2.90
2022-10-25T19:25:29.746Z,2.53
2022-10-25T19:27:56.963Z,3.47
2022-10-25T19:30:24.572Z,4.43
2022-10-25T19:32:51.574Z,3.28
2022-10-25T19:35:18.616Z,4.40
2022-10-25T19:37:45.492Z,3.47
2022-10-25T19:40:12.870Z,3.83
2022-10-25T19:42:39.562Z,4.93
2022-10-25T19:45:06.659Z,4.07
2022-10-25T19:47:35.755Z,3.20
2022-10-25T19:50:05.491Z,3.40
2022-10-25T19:52:38.285Z,3.20
2022-10-25T19:55:06.735Z,3.30
2022-10-25T19:57:34.535Z,3.15
2022-10-25T20:00:01.887Z,3.13
2022-10-25T20:02:28.654Z,2.75
2022-10-25T20:04:55.560Z,3.15
2022-10-25T20:07:22.245Z,2.70
2022-10-25T20:09:48.885Z,3.17
2022-10-25T20:12:15.611Z,3.08
2022-10-25T20:14:42.819Z,2.92
2022-10-25T20:17:12.495Z,3.30
2022-10-25T20:19:39.332Z,3.60
2022-10-25T20:22:06.143Z,3.33
2022-10-25T20:24:32.906Z,3.22
2022-10-25T20:27:00.259Z,3.47
2022-10-25T20:29:31.178Z,3.35
2022-10-25T20:31:59.331Z,3.97
2022-10-25T20:34:27.070Z,3.58
2022-10-25T20:36:53.876Z,3.85
2022-10-25T20:39:20.550Z,3.72
2022-10-25T20:41:47.400Z,3.55
2022-10-25T20:44:14.786Z,3.63
2022-10-25T20:46:41.754Z,3.47
2022-10-25T20:49:08.560Z,3.38
2022-10-25T20:51:35.531Z,3.75
2022-10-25T20:54:09.168Z,3.47
2022-10-25T20:56:37.211Z,4.20
2022-10-25T20:59:04.587Z,5.45
2022-10-25T21:01:32.662Z,7.00
2022-10-25T21:03:59.505Z,8.68
2022-10-25T21:06:26.198Z,6.68
2022-10-25T21:08:52.877Z,6.00
2022-10-25T21:11:19.640Z,6.03
2022-10-25T21:13:46.315Z,5.55
2022-10-25T21:16:14.984Z,4.88
2022-10-25T21:18:42.797Z,5.05
2022-10-25T21:21:17.935Z,4.78
2022-10-25T21:23:45.944Z,4.68
2022-10-25T21:26:12.833Z,4.18
2022-10-25T21:28:41.552Z,4.43
2022-10-25T21:31:11.103Z,4.97
2022-10-25T21:33:37.943Z,4.00
2022-10-25T21:36:06.893Z,4.30
2022-10-25T21:38:33.734Z,4.00
2022-10-25T21:41:17.014Z,4.20
2022-10-25T21:43:45.975Z,4.10
2022-10-25T21:46:14.071Z,3.50
2022-10-25T21:48:41.536Z,3.70
2022-10-25T21:51:08.243Z,3.72
2022-10-25T21:53:35.426Z,4.22
2022-10-25T21:56:05.878Z,3.83
2022-10-25T22:00:59.214Z,3.85
2022-10-25T22:03:29.426Z,4.00
2022-10-25T22:05:56.751Z,3.58
2022-10-25T22:08:23.830Z,4.40
2022-10-25T22:11:02.961Z,4.07
2022-10-25T22:13:30.024Z,4.00
2022-10-25T22:16:16.884Z,3.63
2022-10-25T22:18:48.365Z,4.05
2022-10-25T22:21:15.143Z,3.85
2022-10-25T22:23:42.884Z,4.53
2022-10-25T22:26:12.223Z,3.85
2022-10-25T22:28:40.955Z,4.40
2022-10-25T22:31:15.400Z,4.32
2022-10-25T22:33:43.138Z,3.83
2022-10-25T22:36:13.830Z,4.55
2022-10-25T22:38:40.997Z,3.88
2022-10-25T22:41:11.476Z,3.90
2022-10-25T22:46:07.921Z,4.32
2022-10-25T22:48:36.575Z,4.03
2022-10-25T22:51:03.945Z,4.53
2022-10-25T22:53:30.751Z,4.43
2022-10-25T22:56:04.299Z,4.22
2022-10-25T22:58:32.575Z,4.25
2022-10-25T23:01:10.636Z,4.57
2022-10-25T23:03:42.518Z,4.50
2022-10-25T23:06:14.156Z,4.05
2022-10-25T23:08:41.962Z,4.53
2022-10-25T23:11:16.929Z,4.15
2022-10-25T23:13:44.467Z,4.68
2022-10-25T23:16:16.066Z,4.57
2022-10-25T23:18:45.297Z,4.35
2022-10-25T23:21:18.009Z,4.32
2022-10-25T23:23:46.889Z,4.72
2022-10-25T23:26:18.564Z,4.50
2022-10-25T23:28:45.305Z,4.97
2022-10-25T23:31:13.407Z,4.40
2022-10-25T23:33:41.758Z,5.20
2022-10-25T23:36:15.679Z,5.10
2022-10-25T23:38:46.711Z,4.55
2022-10-25T23:41:13.481Z,5.45
2022-10-25T23:43:40.918Z,4.90
2022-10-25T23:46:08.728Z,5.28
2022-10-25T23:48:36.001Z,4.82
2022-10-25T23:51:05.706Z,5.07
2022-10-25T23:53:32.417Z,5.45
2022-10-25T23:55:59.372Z,5.30
2022-10-25T23:58:26.221Z,5.32
